createdAt,value
2018-09-26T00:01:45.022Z,6.16
2018-09-26T00:06:42.511Z,6.09
2018-09-26T00:11:39.958Z,6.39
2018-09-26T00:16:38.143Z,6.09
2018-09-26T00:21:35.560Z,6.27
2018-09-26T00:26:33.070Z,6.10
2018-09-26T00:31:30.498Z,6.05
2018-09-26T00:36:27.921Z,6.03
2018-09-26T00:41:25.413Z,5.98
2018-09-26T00:46:22.824Z,6.08
2018-09-26T00:51:20.267Z,6.57
2018-09-26T00:56:17.687Z,6.40
2018-09-26T01:01:15.141Z,6.49
2018-09-26T01:06:12.555Z,6.45
2018-09-26T01:11:10.059Z,6.56
2018-09-26T01:16:07.483Z,6.81
2018-09-26T01:21:04.911Z,6.44
2018-09-26T01:26:02.347Z,6.23
2018-09-26T01:30:59.791Z,6.35
2018-09-26T01:35:57.204Z,6.17
2018-09-26T01:40:54.608Z,6.15
2018-09-26T01:45:52.022Z,6.33
2018-09-26T01:50:49.436Z,6.31
2018-09-26T01:55:46.905Z,6.42
2018-09-26T02:00:44.336Z,6.64
2018-09-26T02:05:41.758Z,6.39
2018-09-26T02:10:39.186Z,6.52
2018-09-26T02:15:36.623Z,6.38
2018-09-26T02:20:34.070Z,6.34
2018-09-26T02:25:32.983Z,6.24
2018-09-26T02:30:30.413Z,6.51
2018-09-26T02:35:27.839Z,6.45
2018-09-26T02:40:25.248Z,5.98
2018-09-26T02:45:22.695Z,5.90
2018-09-26T02:50:20.112Z,5.77
2018-09-26T02:55:17.558Z,5.85
2018-09-26T03:00:14.996Z,6.04
2018-09-26T03:05:12.400Z,5.69
2018-09-26T03:10:09.816Z,5.75
2018-09-26T03:15:07.235Z,5.85
2018-09-26T03:20:04.959Z,5.95
2018-09-26T03:25:02.384Z,6.22
2018-09-26T03:29:59.816Z,5.79
2018-09-26T03:34:57.235Z,5.77
2018-09-26T03:39:54.655Z,5.64
2018-09-26T03:44:52.061Z,5.61
2018-09-26T03:49:49.478Z,5.76
2018-09-26T03:54:50.874Z,5.68
2018-09-26T03:59:48.407Z,5.31
2018-09-26T04:04:45.839Z,5.29
2018-09-26T04:09:43.230Z,5.23
2018-09-26T04:14:40.640Z,5.15
2018-09-26T04:19:38.072Z,5.09
2018-09-26T04:24:36.727Z,5.12
2018-09-26T04:29:34.167Z,5.55
2018-09-26T04:34:35.891Z,5.34
2018-09-26T04:39:33.927Z,5.35
2018-09-26T04:44:31.811Z,5.55
2018-09-26T04:49:29.233Z,5.55
2018-09-26T04:54:28.922Z,5.46
2018-09-26T04:59:26.396Z,5.45
2018-09-26T05:04:23.865Z,5.74
2018-09-26T05:09:21.310Z,5.63
2018-09-26T05:14:18.704Z,5.82
2018-09-26T05:19:16.200Z,5.66
2018-09-26T05:24:20.054Z,5.66
2018-09-26T05:29:17.523Z,5.82
2018-09-26T05:34:14.992Z,5.83
2018-09-26T05:39:12.463Z,6.87
2018-09-26T05:44:10.200Z,7.87
2018-09-26T05:49:08.323Z,7.51
2018-09-26T05:54:29.604Z,7.25
2018-09-26T05:59:27.159Z,6.86
2018-09-26T06:04:24.619Z,6.75
2018-09-26T06:09:22.099Z,6.93
2018-09-26T06:14:19.616Z,6.99
2018-09-26T06:19:17.086Z,7.45
2018-09-26T06:24:18.278Z,7.59
2018-09-26T06:29:15.781Z,7.86
2018-09-26T06:34:13.271Z,8.11
2018-09-26T06:39:11.778Z,8.29
2018-09-26T06:44:09.225Z,8.64
2018-09-26T06:49:06.684Z,8.86
2018-09-26T06:54:11.889Z,9.19
2018-09-26T06:59:09.500Z,9.51
2018-09-26T07:04:06.999Z,9.78
2018-09-26T07:09:06.726Z,10.08
2018-09-26T07:14:04.160Z,10.28
2018-09-26T07:19:01.587Z,10.40
2018-09-26T07:24:08.932Z,10.64
2018-09-26T07:29:06.935Z,10.89
2018-09-26T07:34:04.355Z,10.81
2018-09-26T07:39:01.868Z,11.04
2018-09-26T07:43:59.325Z,11.27
2018-09-26T07:48:56.752Z,11.37
2018-09-26T07:54:05.089Z,11.76
2018-09-26T07:59:02.615Z,11.56
2018-09-26T08:04:00.183Z,11.96
2018-09-26T08:08:57.616Z,11.95
2018-09-26T08:13:55.063Z,12.02
2018-09-26T08:18:52.562Z,12.50
2018-09-26T08:28:54.828Z,12.38
2018-09-26T08:33:52.280Z,12.10
2018-09-26T08:38:49.731Z,12.56
2018-09-26T08:43:49.030Z,12.32
2018-09-26T08:48:51.457Z,12.41
2018-09-26T08:53:54.794Z,12.69
2018-09-26T08:58:55.098Z,12.58
2018-09-26T09:03:54.204Z,12.97
2018-09-26T09:08:51.690Z,13.31
2018-09-26T09:13:49.112Z,13.26
2018-09-26T09:18:47.332Z,13.55
2018-09-26T09:23:48.267Z,13.55
2018-09-26T09:28:45.713Z,13.49
2018-09-26T09:33:43.185Z,13.65
2018-09-26T09:38:41.377Z,13.88
2018-09-26T09:43:40.033Z,14.14
2018-09-26T09:48:37.433Z,14.07
2018-09-26T09:53:38.064Z,14.28
2018-09-26T09:58:35.557Z,14.26
2018-09-26T10:03:33.012Z,14.51
2018-09-26T10:08:33.863Z,14.55
2018-09-26T10:13:33.243Z,14.53
2018-09-26T10:18:35.048Z,15.07
2018-09-26T10:23:36.172Z,14.29
2018-09-26T10:28:35.771Z,14.96
2018-09-26T10:33:33.796Z,14.81
2018-09-26T10:38:33.780Z,14.91
2018-09-26T10:43:31.244Z,14.73
2018-09-26T10:48:28.844Z,15.05
2018-09-26T10:53:26.277Z,15.13
2018-09-26T10:58:23.768Z,15.41
2018-09-26T11:03:21.200Z,15.42
2018-09-26T11:08:18.947Z,15.09
2018-09-26T11:13:16.400Z,15.13
2018-09-26T11:18:13.887Z,15.52
2018-09-26T11:23:11.360Z,15.86
2018-09-26T11:28:08.848Z,15.91
2018-09-26T11:33:06.388Z,15.91
2018-09-26T11:38:03.881Z,15.63
2018-09-26T11:43:02.011Z,16.32
2018-09-26T11:48:00.382Z,16.23
2018-09-26T11:52:59.044Z,16.15
2018-09-26T11:57:56.516Z,17.06
2018-09-26T12:02:53.985Z,17.03
2018-09-26T12:07:51.863Z,16.83
2018-09-26T12:12:49.500Z,16.81
2018-09-26T12:18:58.903Z,16.93
2018-09-26T12:24:00.222Z,16.99
2018-09-26T12:28:58.380Z,16.93
2018-09-26T12:33:56.419Z,17.06
2018-09-26T12:39:02.908Z,16.93
2018-09-26T12:44:05.667Z,17.56
2018-09-26T12:49:11.676Z,17.47
2018-09-26T12:54:28.210Z,17.77
2018-09-26T12:59:32.072Z,17.76
2018-09-26T13:04:31.857Z,17.29
2018-09-26T13:14:40.614Z,17.65
2018-09-26T13:19:40.102Z,17.30
2018-09-26T13:24:40.831Z,17.30
2018-09-26T13:29:46.339Z,17.31
2018-09-26T13:34:46.037Z,17.99
2018-09-26T13:39:45.303Z,17.79
2018-09-26T13:44:45.063Z,17.71
2018-09-26T13:49:47.657Z,17.80
2018-09-26T13:54:51.157Z,17.56
2018-09-26T13:59:48.692Z,17.89
2018-09-26T14:04:46.136Z,17.48
2018-09-26T14:09:43.661Z,17.55
2018-09-26T14:14:41.121Z,17.71
2018-09-26T14:19:45.921Z,17.89
2018-09-26T14:24:50.120Z,17.99
2018-09-26T14:29:47.784Z,18.03
2018-09-26T14:34:45.473Z,18.19
2018-09-26T14:39:43.184Z,17.86
2018-09-26T14:44:40.893Z,18.09
2018-09-26T14:49:38.712Z,18.36
2018-09-26T14:54:37.019Z,17.94
2018-09-26T14:59:34.750Z,17.89
2018-09-26T15:04:32.558Z,18.11
2018-09-26T15:09:30.192Z,18.05
2018-09-26T15:14:27.896Z,18.18
2018-09-26T15:19:25.618Z,18.30
2018-09-26T15:24:29.870Z,18.27
2018-09-26T15:29:27.569Z,18.44
2018-09-26T15:34:25.290Z,18.22
2018-09-26T15:39:22.979Z,18.16
2018-09-26T15:44:20.771Z,18.35
2018-09-26T15:49:18.436Z,18.35
2018-09-26T15:54:21.303Z,18.48
2018-09-26T15:59:19.081Z,18.35
2018-09-26T16:04:24.368Z,18.15
2018-09-26T16:09:21.808Z,17.98
2018-09-26T16:14:25.894Z,18.02
2018-09-26T16:19:23.397Z,18.24
2018-09-26T16:24:28.265Z,18.29
2018-09-26T16:29:25.825Z,18.43
2018-09-26T16:34:23.281Z,18.50
2018-09-26T16:39:20.798Z,18.34
2018-09-26T16:44:18.226Z,18.10
2018-09-26T16:49:15.700Z,17.61
2018-09-26T16:54:14.477Z,17.31
2018-09-26T16:59:12.120Z,17.08
2018-09-26T17:04:09.579Z,16.85
2018-09-26T17:09:07.920Z,16.78
2018-09-26T17:14:05.404Z,16.65
2018-09-26T17:19:02.844Z,16.47
2018-09-26T17:24:10.721Z,16.31
2018-09-26T17:29:08.350Z,16.28
2018-09-26T17:34:05.817Z,16.21
2018-09-26T17:39:04.405Z,16.13
2018-09-26T17:44:01.853Z,16.09
2018-09-26T17:48:59.268Z,16.01
2018-09-26T17:54:07.873Z,15.87
2018-09-26T17:59:05.476Z,15.81
2018-09-26T18:04:02.880Z,15.73
2018-09-26T18:09:00.310Z,15.28
2018-09-26T18:13:57.738Z,14.78
2018-09-26T18:18:55.155Z,14.59
2018-09-26T18:24:04.746Z,14.52
2018-09-26T18:29:02.308Z,14.30
2018-09-26T18:33:59.724Z,14.13
2018-09-26T18:38:57.228Z,13.96
2018-09-26T18:43:54.616Z,13.80
2018-09-26T18:48:52.047Z,13.70
2018-09-26T18:53:49.824Z,13.71
2018-09-26T18:58:47.244Z,13.55
2018-09-26T19:03:44.681Z,13.42
2018-09-26T19:08:42.089Z,13.22
2018-09-26T19:13:39.624Z,12.98
2018-09-26T19:18:37.056Z,12.87
2018-09-26T19:23:34.472Z,12.79
2018-09-26T19:28:32.013Z,12.73
2018-09-26T19:33:29.425Z,12.66
2018-09-26T19:38:26.867Z,12.58
2018-09-26T19:43:24.308Z,12.47
2018-09-26T19:48:21.729Z,12.40
2018-09-26T19:53:19.146Z,12.43
2018-09-26T19:58:16.606Z,12.29
2018-09-26T20:03:14.044Z,12.12
2018-09-26T20:08:11.563Z,12.01
2018-09-26T20:13:08.939Z,11.91
2018-09-26T20:18:06.350Z,11.90
2018-09-26T20:23:03.923Z,11.51
2018-09-26T20:28:01.269Z,11.35
2018-09-26T20:32:58.711Z,11.39
2018-09-26T20:37:56.124Z,11.49
2018-09-26T20:42:53.532Z,11.48
2018-09-26T20:47:50.932Z,11.58
2018-09-26T20:52:48.342Z,11.57
2018-09-26T20:57:45.764Z,11.58
2018-09-26T21:02:43.186Z,11.69
2018-09-26T21:07:40.599Z,11.76
2018-09-26T21:12:38.040Z,11.73
2018-09-26T21:17:35.475Z,11.74
2018-09-26T21:22:32.903Z,11.63
2018-09-26T21:27:30.319Z,11.46
2018-09-26T21:32:27.739Z,11.53
2018-09-26T21:37:25.152Z,11.22
2018-09-26T21:42:22.608Z,11.20
2018-09-26T21:47:20.030Z,11.02
2018-09-26T21:52:17.442Z,10.79
2018-09-26T21:57:14.895Z,10.61
2018-09-26T22:02:12.348Z,10.54
2018-09-26T22:07:09.779Z,10.43
2018-09-26T22:12:07.229Z,10.91
2018-09-26T22:17:04.651Z,10.71
2018-09-26T22:22:02.107Z,10.97
2018-09-26T22:26:59.505Z,10.51
2018-09-26T22:31:56.912Z,10.63
2018-09-26T22:36:54.320Z,11.04
2018-09-26T22:41:51.725Z,10.84
2018-09-26T22:46:49.172Z,10.96
2018-09-26T22:51:46.583Z,10.96
2018-09-26T22:56:44.003Z,10.88
2018-09-26T23:01:41.475Z,10.89
2018-09-26T23:06:38.904Z,11.35
2018-09-26T23:11:37.857Z,11.09
2018-09-26T23:16:35.340Z,11.10
2018-09-26T23:21:32.735Z,11.19
2018-09-26T23:26:33.866Z,11.36
2018-09-26T23:31:31.263Z,11.37
2018-09-26T23:36:28.657Z,11.37
2018-09-26T23:41:26.114Z,11.47
2018-09-26T23:46:23.496Z,11.78
2018-09-26T23:51:20.980Z,11.73
2018-09-26T23:56:18.383Z,12.01
